Time;durP1;ratioP1;P1;durP2;ratioP2;P2;SDS_P1;SDS_P2;PMS_P1;PMS_P2;Temp;Humidity;BMP_temperature;BMP_pressure;BME280_temperature;BME280_humidity;BME280_pressure;Samples;Min_cycle;Max_cycle;Signal;HPM_P1;HPM_P2
2022/07/14 00:01:03;;;;;;;14.82;4.32;;;21.30;99.90;;;21.62;61.21;102048.84;5055458;28;20451;-63
2022/07/14 00:03:33;;;;;;;14.60;5.03;;;21.30;99.90;;;21.74;60.82;102061.91;5055406;28;20095;-63
2022/07/14 00:06:01;;;;;;;14.73;4.45;;;21.30;99.90;;;21.80;60.92;102061.75;5055843;28;20129;-63
2022/07/14 00:08:30;;;;;;;14.10;4.88;;;21.30;99.90;;;21.80;61.36;102052.72;5055600;28;20049;-63
2022/07/14 00:10:59;;;;;;;12.90;4.13;;;21.30;99.90;;;21.85;60.63;102062.50;5054302;28;20041;-63
2022/07/14 00:13:27;;;;;;;15.70;4.50;;;21.40;99.90;;;21.82;60.68;102059.00;5055251;28;20045;-63
2022/07/14 00:15:55;;;;;;;14.02;4.25;;;21.30;99.90;;;21.77;60.82;102056.44;5055172;28;20044;-63
2022/07/14 00:18:24;;;;;;;10.80;3.85;;;21.30;99.90;;;21.77;60.82;102051.03;5055364;28;20055;-63
2022/07/14 00:20:53;;;;;;;10.90;3.78;;;21.30;99.90;;;21.80;60.61;102055.44;5055355;28;20418;-63
2022/07/14 00:23:22;;;;;;;13.40;4.47;;;21.30;99.90;;;21.70;60.67;102053.97;5055402;28;20123;-63
2022/07/14 00:25:50;;;;;;;15.38;4.53;;;21.30;99.90;;;21.67;60.66;102063.03;5055210;28;20036;-63
2022/07/14 00:28:18;;;;;;;11.95;4.38;;;21.20;99.90;;;21.67;60.74;102070.22;5055260;28;20048;-63
2022/07/14 00:30:50;;;;;;;14.25;4.60;;;21.20;99.90;;;21.61;61.22;102060.53;5055193;28;20033;-63
2022/07/14 00:33:19;;;;;;;9.63;4.10;;;21.20;99.90;;;21.60;61.09;102049.81;5055190;28;20041;-63
2022/07/14 00:35:47;;;;;;;10.23;4.07;;;21.20;99.90;;;21.58;61.25;102058.78;5055096;28;20083;-63
2022/07/14 00:38:17;;;;;;;10.65;3.70;;;21.10;99.90;;;21.65;60.78;102053.22;5052903;28;20625;-63
2022/07/14 00:40:45;;;;;;;11.97;4.10;;;21.20;99.90;;;21.58;60.97;102050.72;5055037;28;20029;-63
2022/07/14 00:43:13;;;;;;;12.68;4.45;;;21.10;99.90;;;21.56;60.49;102055.25;5054903;28;20457;-63
2022/07/14 00:45:42;;;;;;;12.82;4.32;;;21.10;99.90;;;21.47;60.89;102060.06;5054512;28;20128;-63
2022/07/14 00:48:12;;;;;;;12.25;4.07;;;21.00;99.90;;;21.45;61.18;102060.09;5054782;28;20049;-63
2022/07/14 00:50:42;;;;;;;10.32;3.92;;;21.00;99.90;;;21.43;61.64;102058.38;5054827;28;20048;-63
2022/07/14 00:53:13;;;;;;;15.23;4.70;;;21.00;99.90;;;21.42;61.40;102057.53;5054608;28;20091;-63
2022/07/14 00:55:44;;;;;;;10.18;3.92;;;21.00;99.90;;;21.39;61.20;102060.28;5054757;28;20044;-63
2022/07/14 00:58:13;;;;;;;10.55;4.10;;;21.00;99.90;;;21.19;61.13;102021.44;5054726;28;20076;-63
2022/07/14 01:00:42;;;;;;;13.80;3.95;;;20.90;99.90;;;21.43;61.09;102058.38;5054545;28;20049;-63
2022/07/14 01:03:11;;;;;;;11.18;3.78;;;20.90;99.90;;;21.37;61.21;102050.47;5054532;28;20398;-63
2022/07/14 01:05:39;;;;;;;15.32;4.63;;;20.90;99.90;;;21.32;61.53;102057.81;5054169;28;20498;-63
2022/07/14 01:08:08;;;;;;;11.70;4.55;;;20.90;99.90;;;21.40;60.96;102055.78;5053119;28;20041;-63
2022/07/14 01:10:36;;;;;;;11.32;3.70;;;20.90;99.90;;;21.27;60.49;102057.94;5054666;28;20048;-63
2022/07/14 01:13:07;;;;;;;12.38;4.10;;;20.80;99.90;;;21.23;60.68;102052.72;5054293;28;20462;-63
2022/07/14 01:15:35;;;;;;;8.80;3.67;;;20.70;99.90;;;21.35;61.03;102061.31;5054372;28;20041;-63
2022/07/14 01:18:04;;;;;;;10.95;4.35;;;20.80;99.90;;;21.13;61.19;102045.84;5052996;28;20148;-63
2022/07/14 01:20:33;;;;;;;13.80;4.38;;;20.70;99.90;;;21.08;61.20;102055.88;5054208;28;20056;-63
2022/07/14 01:23:02;;;;;;;7.93;3.72;;;20.60;99.90;;;20.98;61.61;102057.03;5054270;28;20040;-63
2022/07/14 01:25:32;;;;;;;12.63;4.67;;;20.50;99.90;;;20.89;62.04;102052.75;5054188;28;20056;-63
2022/07/14 01:28:00;;;;;;;12.55;4.45;;;20.50;99.90;;;20.88;61.93;102052.81;5054130;28;20044;-63
2022/07/14 01:30:29;;;;;;;10.88;3.85;;;20.40;99.90;;;20.84;61.96;102061.91;5053821;28;20132;-63
2022/07/14 01:32:57;;;;;;;9.57;4.20;;;20.40;99.90;;;20.66;62.06;102053.41;5053667;28;20041;-63
2022/07/14 01:35:26;;;;;;;12.35;3.78;;;20.30;99.90;;;20.74;62.50;102052.31;5053974;28;20095;-62
2022/07/14 01:37:54;;;;;;;13.40;4.28;;;20.20;99.90;;;20.61;62.58;102063.38;5052635;28;20072;-63
2022/07/14 01:40:24;;;;;;;10.85;4.15;;;20.10;99.90;;;20.68;62.38;102062.31;5052620;28;20045;-62
2022/07/14 01:42:53;;;;;;;10.05;3.40;;;20.10;99.90;;;20.59;63.06;102059.00;5052642;28;20419;-62
2022/07/14 01:45:21;;;;;;;11.23;3.55;;;20.10;99.90;;;20.58;63.09;102070.66;5053694;28;20079;-63
2022/07/14 01:47:50;;;;;;;11.98;4.05;;;20.10;99.90;;;20.56;63.38;102062.63;5053607;28;20478;-63
2022/07/14 01:50:18;;;;;;;7.90;3.75;;;20.10;99.90;;;20.73;62.85;102055.94;5052121;28;20054;-62
2022/07/14 01:52:48;;;;;;;9.30;3.40;;;20.20;99.90;;;20.54;63.23;102066.28;5052081;28;20065;-62
2022/07/14 01:55:18;;;;;;;;;;;20.10;99.90;;;20.42;63.58;102063.94;5052851;28;20491;-63
2022/07/14 01:57:48;;;;;;;14.55;3.80;;;20.00;99.90;;;20.44;63.81;102054.88;5068969;28;19929;-62
2022/07/14 02:00:17;;;;;;;;;;;20.00;99.90;;;20.33;63.28;102048.03;5052785;28;20047;-63
2022/07/14 02:02:50;;;;;;;10.95;4.25;;;19.90;99.90;;;20.33;63.18;102048.91;5052313;28;19920;-62
2022/07/14 02:05:20;;;;;;;9.57;3.58;;;19.80;99.90;;;20.29;63.31;102044.53;5052209;28;20495;-63
2022/07/14 02:07:50;;;;;;;12.98;4.15;;;19.80;99.90;;;20.26;63.57;102043.72;5052121;28;20041;-63
2022/07/14 02:13:26;;;;;;;9.80;4.22;;;19.70;99.90;;;20.29;63.99;102035.56;5052170;28;20045;-63
2022/07/14 02:15:55;;;;;;;13.13;4.25;;;19.80;99.90;;;20.37;63.36;102037.16;5052170;28;20049;-63
2022/07/14 02:18:23;;;;;;;10.23;3.50;;;19.80;99.90;;;20.25;64.15;102033.88;5052064;28;20045;-62
2022/07/14 02:20:52;;;;;;;9.65;3.95;;;19.70;99.90;;;20.09;65.38;102027.97;5053300;28;20049;-63
2022/07/14 02:23:20;;;;;;;5.78;3.63;;;19.60;99.90;;;19.95;66.07;102024.78;5053301;28;20063;-63
2022/07/14 02:25:48;;;;;;;8.73;3.15;;;19.50;99.90;;;19.74;66.10;101998.44;5052059;28;20088;-63
2022/07/14 02:28:17;;;;;;;12.43;4.25;;;19.30;99.90;;;19.44;66.59;102013.47;5051866;28;20445;-63
2022/07/14 02:30:48;;;;;;;5.47;3.25;;;19.00;99.90;;;19.20;67.85;102021.13;5051906;28;20080;-63
2022/07/14 02:33:16;;;;;;;7.60;3.65;;;18.70;99.90;;;18.89;69.12;102013.72;5053247;28;20041;-62
2022/07/14 02:35:45;;;;;;;3.17;2.80;;;18.40;99.90;;;18.73;69.68;102014.06;5053163;28;20160;-63
2022/07/14 02:38:14;;;;;;;4.35;2.80;;;18.30;99.90;;;18.63;69.80;102005.31;5053139;28;20056;-63
2022/07/14 02:40:42;;;;;;;3.47;3.03;;;18.20;99.90;;;18.52;70.02;102012.69;5053097;28;20538;-62
2022/07/14 02:43:10;;;;;;;3.67;2.63;;;18.10;99.90;;;18.50;70.13;102011.84;5052812;28;20041;-63
2022/07/14 02:45:39;;;;;;;3.92;3.30;;;18.10;99.90;;;18.47;70.58;102014.53;5051766;28;20491;-63
2022/07/14 02:48:09;;;;;;;5.35;2.67;;;18.00;99.90;;;18.46;70.86;102010.13;5085229;28;20513;-62
2022/07/14 02:50:37;;;;;;;5.72;3.17;;;18.00;99.90;;;18.53;70.83;102010.88;5051817;28;20048;-63
2022/07/14 02:53:06;;;;;;;7.05;3.65;;;18.00;99.90;;;18.54;70.78;102013.50;5052815;28;20068;-62
2022/07/14 02:55:37;;;;;;;12.10;4.10;;;18.10;99.90;;;18.46;71.18;102020.84;5053207;28;20053;-63
2022/07/14 02:58:05;;;;;;;6.65;3.53;;;18.10;99.90;;;18.68;71.34;102007.88;5052959;28;20102;-62
2022/07/14 03:00:35;;;;;;;8.55;3.63;;;18.20;99.90;;;18.68;71.66;102011.47;5052905;28;20041;-63
2022/07/14 03:03:06;;;;;;;5.97;3.33;;;18.20;99.90;;;18.61;71.29;102004.47;5055644;28;20461;-63
2022/07/14 03:05:36;;;;;;;6.18;3.00;;;18.20;99.90;;;18.61;71.40;101999.09;5056483;28;20503;-62
2022/07/14 03:08:05;;;;;;;4.77;3.13;;;18.10;99.90;;;18.60;71.67;102004.50;5055423;28;20048;-62
2022/07/14 03:10:34;;;;;;;5.80;2.90;;;18.10;99.90;;;18.61;72.37;102004.47;5055574;28;20318;-63
2022/07/14 03:13:03;;;;;;;2.83;2.50;;;18.10;99.90;;;18.48;72.59;101978.81;5055430;28;20438;-63
2022/07/14 03:15:32;;;;;;;2.88;2.60;;;18.10;99.90;;;18.71;72.80;102002.47;5056641;28;20103;-63
2022/07/14 03:18:01;;;;;;;2.85;2.65;;;18.10;99.90;;;18.68;73.18;102000.75;5055339;28;20409;-63
2022/07/14 03:20:30;;;;;;;3.80;2.40;;;18.10;99.90;;;18.66;72.98;101991.84;5055266;28;20045;-63
2022/07/14 03:23:00;;;;;;;5.88;3.15;;;18.20;99.90;;;18.64;72.55;102007.06;5055226;28;20102;-62
2022/07/14 03:25:29;;;;;;;;;;;18.20;99.90;;;18.66;71.96;102010.59;5055595;28;20487;-62
2022/07/14 03:27:58;;;;;;;7.07;3.30;;;18.20;99.90;;;18.72;71.91;101997.09;5071750;28;19921;-63
2022/07/14 03:30:33;;;;;;;6.20;3.55;;;18.20;99.90;;;18.79;71.43;101988.00;5055150;28;20136;-63
2022/07/14 03:33:01;;;;;;;8.82;3.58;;;18.20;99.90;;;18.82;71.03;101990.63;5055008;28;20095;-63
2022/07/14 03:35:30;;;;;;;10.25;3.75;;;18.30;99.90;;;18.83;70.66;101992.38;5055975;28;20521;-63
2022/07/14 03:38:00;;;;;;;9.13;4.03;;;18.30;99.90;;;18.89;70.61;101994.94;5054889;28;20045;-63
2022/07/14 03:40:52;;;;;;;10.88;3.70;;;18.40;99.90;;;18.99;70.24;102001.00;5055268;28;20107;-63
2022/07/14 03:43:20;;;;;;;12.48;3.80;;;18.40;99.90;;;18.78;70.09;101996.97;5055874;28;20040;-63
2022/07/14 03:45:49;;;;;;;9.07;4.05;;;18.40;99.90;;;18.76;69.72;102009.50;5054763;28;20045;-62
2022/07/14 03:48:19;;;;;;;7.18;4.07;;;18.30;99.90;;;18.73;69.75;102014.06;5054729;28;20045;-63
2022/07/14 03:50:51;;;;;;;8.88;4.15;;;18.30;99.90;;;18.78;69.51;102006.78;5054737;28;20057;-62
2022/07/14 03:53:23;;;;;;;;;;;18.30;99.90;;;18.81;69.57;102012.13;5054915;28;20057;-63
2022/07/14 03:55:52;;;;;;;12.05;4.43;;;18.30;99.90;;;18.83;69.37;102008.47;5071387;28;20017;-62
2022/07/14 03:58:25;;;;;;;12.15;4.43;;;18.30;99.90;;;18.95;69.59;102006.47;5054570;28;20532;-63
2022/07/14 04:00:53;;;;;;;11.98;4.20;;;18.40;99.90;;;19.03;69.63;102001.84;5054481;28;20052;-63
2022/07/14 04:03:22;;;;;;;10.50;4.03;;;18.50;99.90;;;19.01;69.88;101995.63;5055673;28;20502;-63
2022/07/14 04:05:52;;;;;;;10.40;4.80;;;18.50;99.90;;;19.01;69.65;101998.31;5054442;28;20045;-62
2022/07/14 04:08:23;;;;;;;11.60;4.10;;;18.50;99.90;;;19.06;69.80;101986.56;5087873;28;20376;-63
2022/07/14 04:11:03;;;;;;;12.68;4.28;;;18.50;99.90;;;19.16;69.56;101985.44;5054090;28;20537;-63
2022/07/14 04:13:32;;;;;;;9.38;3.92;;;18.60;99.90;;;19.15;69.21;101985.47;5053393;28;20407;-63
2022/07/14 04:16:01;;;;;;;10.43;4.20;;;18.60;99.90;;;19.20;68.91;101988.94;5054239;28;20033;-63
2022/07/14 04:18:35;;;;;;;10.73;4.32;;;18.70;99.90;;;19.19;68.70;101985.38;5054529;28;20137;-62
2022/07/14 04:21:04;;;;;;;7.28;4.07;;;18.70;99.90;;;19.28;68.54;101993.22;5054110;28;20051;-63
2022/07/14 04:23:34;;;;;;;11.43;4.50;;;18.70;99.90;;;19.33;68.58;101985.09;5055611;28;20384;-63
2022/07/14 04:26:07;;;;;;;9.93;4.28;;;18.80;99.90;;;19.40;68.43;101987.59;5054097;28;20056;-63
2022/07/14 04:28:36;;;;;;;14.30;4.22;;;18.90;99.90;;;19.49;68.02;101979.31;5055119;28;20495;-62
2022/07/14 04:31:06;;;;;;;9.82;4.03;;;19.00;99.90;;;19.35;67.81;101938.53;5053894;28;20045;-63
2022/07/14 04:33:36;;;;;;;12.00;4.32;;;19.10;99.90;;;19.60;68.04;101977.28;5053903;28;20056;-62
2022/07/14 04:36:06;;;;;;;11.95;4.20;;;19.10;99.90;;;19.73;67.64;101973.38;5053779;28;20083;-63
2022/07/14 04:38:36;;;;;;;9.93;4.50;;;19.20;99.90;;;19.85;67.58;101974.00;5054955;28;20053;-63
2022/07/14 04:41:05;;;;;;;11.10;4.30;;;19.30;99.90;;;19.91;66.90;101977.44;5053714;28;20037;-62
2022/07/14 04:43:38;;;;;;;9.75;4.22;;;19.40;99.90;;;19.93;67.10;101978.28;5053738;28;20098;-63
2022/07/14 04:46:09;;;;;;;9.02;4.00;;;19.50;99.90;;;20.00;66.61;101976.28;5053672;28;20052;-63
2022/07/14 04:54:22;;;;;;;13.52;4.43;;;19.60;99.90;;;20.17;65.59;101984.81;5053173;28;20052;-62
2022/07/14 04:56:59;;;;;;;29.13;4.78;;;19.70;99.90;;;20.15;65.62;101990.22;5053449;28;20056;-63
2022/07/14 04:59:37;;;;;;;10.40;4.10;;;19.70;99.90;;;20.25;65.87;101996.25;5053140;28;20466;-63
2022/07/14 05:02:06;;;;;;;10.98;4.47;;;19.80;99.90;;;20.26;65.86;101990.88;5053306;28;20132;-62
2022/07/14 05:04:35;;;;;;;12.38;4.22;;;19.80;99.90;;;20.32;65.72;102004.16;5054582;28;20059;-62
2022/07/14 05:07:06;;;;;;;8.18;4.28;;;19.90;99.90;;;20.39;65.32;102000.38;5053318;28;20491;-62
2022/07/14 05:09:38;;;;;;;9.75;4.13;;;19.90;99.90;;;20.43;65.32;102004.75;5053247;28;20053;-63
2022/07/14 05:12:09;;;;;;;12.80;4.00;;;20.00;99.90;;;20.55;65.19;102001.72;5053174;28;20048;-63
2022/07/14 05:14:38;;;;;;;8.95;4.25;;;20.10;99.90;;;20.59;64.92;102000.72;5053146;28;20136;-63
2022/07/14 05:17:07;;;;;;;12.30;4.70;;;20.10;99.90;;;20.66;64.63;102006.78;5052980;28;20526;-63
2022/07/14 05:19:54;;;;;;;11.82;4.47;;;20.20;99.90;;;20.68;64.24;102002.25;5053025;28;20069;-63
2022/07/14 05:22:24;;;;;;;7.65;3.92;;;20.30;99.90;;;20.77;64.88;102012.75;5052927;28;20380;-62
2022/07/14 05:24:54;;;;;;;11.70;4.75;;;20.30;99.90;;;20.77;64.64;102002.00;5053720;28;20099;-63
2022/07/14 05:27:24;;;;;;;14.48;4.07;;;20.30;99.90;;;20.74;65.04;102003.88;5052896;28;20491;-63
2022/07/14 05:29:52;;;;;;;9.38;4.05;;;20.30;99.90;;;20.81;65.24;101986.69;5052679;28;20045;-63
2022/07/14 05:32:21;;;;;;;10.77;4.60;;;20.40;99.90;;;21.08;64.68;102005.59;5052729;28;20099;-62
2022/07/14 05:34:49;;;;;;;11.68;4.00;;;20.60;99.90;;;21.00;64.12;102004.91;5052644;28;20123;-63
2022/07/14 05:37:20;;;;;;;11.98;4.85;;;20.60;99.90;;;21.03;63.44;101998.59;5052732;28;20104;-63
2022/07/14 05:39:49;;;;;;;11.88;4.35;;;20.60;99.90;;;21.06;63.73;102009.28;5052638;28;20049;-63
2022/07/14 05:42:20;;;;;;;11.95;4.47;;;20.60;99.90;;;21.11;63.43;102010.00;5053847;28;20037;-63
2022/07/14 05:44:49;;;;;;;10.57;4.63;;;20.60;99.90;;;21.14;63.08;102016.19;5052299;28;20487;-63
2022/07/14 05:47:18;;;;;;;9.13;4.18;;;20.70;99.90;;;21.18;63.65;102022.34;5052265;28;20074;-63
2022/07/14 05:49:46;;;;;;;9.68;4.05;;;20.70;99.90;;;21.22;63.28;102022.22;5053379;28;20098;-63
2022/07/14 05:52:15;;;;;;;10.40;4.05;;;20.80;99.90;;;21.33;62.98;102025.47;5052153;28;20540;-63
2022/07/14 05:54:44;;;;;;;10.45;4.40;;;20.90;99.90;;;21.34;62.84;102032.63;5051745;28;20155;-63
2022/07/14 05:57:15;;;;;;;10.45;4.32;;;21.00;99.90;;;21.52;63.34;102028.50;5052247;28;20063;-63
2022/07/14 05:59:46;;;;;;;9.80;3.67;;;21.10;99.90;;;21.55;61.88;102017.63;5052153;28;20136;-63
2022/07/14 06:02:17;;;;;;;14.05;3.80;;;21.20;99.90;;;21.49;61.63;102010.63;5052245;28;20507;-63
2022/07/14 06:04:46;;;;;;;8.63;3.60;;;21.10;99.90;;;21.52;61.51;102007.81;5085713;28;20044;-63
2022/07/14 06:07:15;;;;;;;13.30;4.07;;;21.10;99.90;;;21.50;61.50;102004.28;5052102;28;20065;-63
2022/07/14 06:09:50;;;;;;;12.98;4.07;;;21.10;99.90;;;21.67;61.61;102009.16;5051801;28;20076;-63
2022/07/14 06:12:20;;;;;;;10.68;4.20;;;21.30;99.90;;;21.73;61.07;102014.34;5085628;28;20068;-63
2022/07/14 06:14:50;;;;;;;14.32;4.70;;;21.30;99.90;;;21.89;61.69;102021.03;5051627;28;20045;-66
2022/07/14 06:17:18;;;;;;;12.13;4.03;;;21.50;99.90;;;21.88;60.72;102016.56;5052065;28;20071;-62
2022/07/14 06:19:47;;;;;;;14.80;4.10;;;21.50;99.90;;;22.03;60.75;102023.25;5051944;28;20049;-64
2022/07/14 06:22:17;;;;;;;10.45;4.05;;;21.60;99.90;;;22.13;60.77;102014.84;5052011;28;20037;-63
2022/07/14 06:24:45;;;;;;;7.78;3.78;;;21.70;99.90;;;21.91;59.57;102016.47;5052906;28;20441;-60
2022/07/14 06:27:19;;;;;;;8.02;3.72;;;21.70;99.90;;;22.09;59.53;102010.47;5051905;28;20049;-60
2022/07/14 06:29:51;;;;;;;10.15;3.60;;;21.70;99.90;;;22.20;59.13;101997.50;5051729;28;20051;-60
2022/07/14 06:32:19;;;;;;;11.43;4.20;;;21.80;99.90;;;22.23;58.93;102008.19;5051771;28;20103;-60
2022/07/14 06:34:51;;;;;;;13.88;4.80;;;21.90;99.90;;;22.22;58.59;102003.72;5052195;28;20342;-60
2022/07/14 06:37:21;;;;;;;10.23;4.28;;;21.90;99.90;;;22.37;58.20;102010.41;5055956;28;20051;-60
2022/07/14 06:39:50;;;;;;;12.27;3.95;;;22.00;99.90;;;22.49;58.60;102007.31;5056786;28;20123;-60
2022/07/14 06:42:19;;;;;;;10.40;4.18;;;22.10;99.90;;;22.72;58.31;102009.19;5055819;28;20094;-60
2022/07/14 06:45:12;;;;;;;12.85;4.38;;;22.30;99.90;;;22.66;56.88;102001.31;5046455;28;20056;-60
2022/07/14 06:47:41;;;;;;;10.52;4.40;;;22.30;99.90;;;21.99;58.78;102000.06;5055717;28;20041;-60
2022/07/14 06:50:10;;;;;;;12.57;4.20;;;21.80;99.90;;;21.84;58.01;101989.78;5055539;28;20072;-60
2022/07/14 06:52:38;;;;;;;14.02;4.55;;;21.50;99.90;;;22.15;58.46;101993.22;5055551;28;20053;-60
2022/07/14 06:55:08;;;;;;;11.70;4.93;;;21.70;99.90;;;22.37;58.56;101989.72;5055462;28;20059;-60
2022/07/14 06:57:37;;;;;;;10.55;4.65;;;21.90;99.90;;;21.75;58.45;101985.56;5056705;28;20545;-60
2022/07/14 07:00:08;;;;;;;11.48;4.10;;;21.40;99.90;;;20.78;61.48;101975.97;5056833;28;20123;-60
2022/07/14 07:02:38;;;;;;;16.85;4.43;;;20.60;99.90;;;20.23;64.31;101976.63;5056529;28;20033;-60
2022/07/14 07:07:57;;;;;;;11.13;4.20;;;19.90;99.90;;;20.12;64.20;101984.94;5056450;28;20482;-60
2022/07/14 07:10:26;;;;;;;12.88;3.78;;;19.60;99.90;;;19.73;65.63;101977.88;5056312;28;20445;-60
2022/07/14 07:12:55;;;;;;;9.38;3.83;;;19.30;99.90;;;19.68;66.97;101972.63;5056281;28;20086;-59
2022/07/14 07:15:23;;;;;;;13.10;4.05;;;19.20;99.90;;;20.03;66.87;101971.75;5055037;28;20080;-60
2022/07/14 07:17:53;;;;;;;17.48;4.82;;;19.40;99.90;;;20.48;66.03;101977.72;5056165;28;20064;-59
2022/07/14 07:20:21;;;;;;;12.05;4.47;;;19.90;99.90;;;20.83;65.22;101976.75;5055141;28;20139;-60
2022/07/14 07:22:50;;;;;;;12.43;3.88;;;20.30;99.90;;;20.98;64.68;101974.47;5056093;28;20399;-60
2022/07/14 07:25:19;;;;;;;11.05;4.10;;;20.50;99.90;;;21.10;64.02;101984.91;5056081;28;20068;-60
2022/07/14 07:27:47;;;;;;;10.38;4.22;;;20.70;99.90;;;21.14;63.73;101983.00;5056216;28;20049;-59
2022/07/14 07:30:15;;;;;;;11.02;3.90;;;20.70;99.90;;;20.89;63.70;101964.00;5055885;28;20041;-60
2022/07/14 07:32:44;;;;;;;13.45;3.72;;;20.70;99.90;;;20.63;65.41;101978.16;5056117;28;20045;-59
2022/07/14 07:35:14;;;;;;;10.32;4.03;;;20.20;99.90;;;20.38;65.50;101978.91;5056286;28;20041;-60
2022/07/14 07:37:42;;;;;;;15.63;4.63;;;20.00;99.90;;;20.48;65.60;101977.72;5056170;28;20090;-60
2022/07/14 07:40:11;;;;;;;11.25;4.00;;;20.00;99.90;;;20.71;64.26;101971.72;5056048;28;20394;-59
2022/07/14 07:42:40;;;;;;;11.98;4.38;;;20.10;99.90;;;20.96;63.53;101979.03;5055727;28;20514;-60
2022/07/14 07:45:11;;;;;;;13.60;4.53;;;20.40;99.90;;;21.25;62.24;101988.97;5055947;28;20079;-60
2022/07/14 07:47:39;;;;;;;10.95;4.13;;;20.70;99.90;;;21.50;61.38;101980.06;5055636;28;20102;-60
2022/07/14 07:50:10;;;;;;;10.75;3.75;;;21.00;99.90;;;21.56;59.72;101989.78;5056025;28;20041;-61
2022/07/14 07:52:39;;;;;;;9.50;4.03;;;21.10;99.90;;;21.94;58.94;101992.13;5054632;28;20048;-60
2022/07/14 07:55:09;;;;;;;13.48;4.05;;;21.40;99.90;;;22.12;57.97;101986.13;5055422;28;20136;-61
2022/07/14 07:57:53;;;;;;;9.73;3.88;;;21.70;99.90;;;22.44;56.59;101985.88;5055724;28;20041;-60
2022/07/14 08:00:22;;;;;;;9.75;3.58;;;22.00;99.90;;;22.75;56.44;101982.09;5055344;28;20069;-60
2022/07/14 08:02:53;;;;;;;11.70;4.20;;;22.30;99.90;;;23.03;55.97;101990.94;5055290;28;20045;-60
2022/07/14 08:05:25;;;;;;;14.55;3.75;;;22.60;99.90;;;23.21;55.44;101999.19;5055898;28;20059;-60
2022/07/14 08:08:15;;;;;;;9.23;3.72;;;22.80;99.90;;;23.30;54.58;102000.66;5055149;28;20040;-60
2022/07/14 08:10:44;;;;;;;10.45;3.47;;;22.90;99.90;;;23.62;54.27;102005.69;5055405;28;20474;-60
2022/07/14 08:13:12;;;;;;;9.55;3.50;;;23.20;99.90;;;23.81;53.40;101997.75;5055463;28;20072;-60
2022/07/14 08:15:41;;;;;;;7.47;3.45;;;23.40;99.90;;;24.12;52.74;101996.41;5054110;28;20487;-60
2022/07/14 08:18:10;;;;;;;9.32;3.67;;;23.70;99.90;;;24.01;51.77;101984.25;5055309;28;20047;-61
2022/07/14 08:20:39;;;;;;;8.70;3.63;;;23.70;99.90;;;24.01;51.91;101982.44;5055052;28;20138;-60
2022/07/14 08:23:07;;;;;;;8.30;3.55;;;23.70;99.90;;;24.01;51.95;101981.56;5055278;28;20140;-60
2022/07/14 08:25:37;;;;;;;8.63;3.80;;;23.60;99.90;;;23.58;51.75;101982.44;5054856;28;20558;-60
2022/07/14 08:28:05;;;;;;;8.60;3.60;;;23.40;99.90;;;22.87;54.16;101974.44;5054858;28;20071;-61
2022/07/14 08:30:34;;;;;;;8.30;3.65;;;22.50;99.90;;;22.86;54.69;101971.81;5054798;28;20051;-60
2022/07/14 08:33:02;;;;;;;9.65;3.20;;;22.40;99.90;;;22.88;54.99;101969.94;5055347;28;20102;-60
2022/07/14 08:35:31;;;;;;;12.82;3.63;;;22.40;99.90;;;23.27;55.02;101969.25;5054759;28;20047;-60
2022/07/14 08:37:59;;;;;;;9.73;4.03;;;22.70;99.90;;;23.60;54.32;101971.56;5054625;28;20052;-60
2022/07/14 08:40:28;;;;;;;28.15;4.00;;;23.10;99.90;;;23.71;55.09;101953.97;5054585;28;20041;-60
2022/07/14 08:42:58;;;;;;;11.80;4.38;;;23.40;99.90;;;24.12;54.10;101963.97;5055108;28;20170;-60
2022/07/14 08:45:27;;;;;;;10.63;3.50;;;23.70;99.90;;;24.40;53.02;101968.19;5055113;28;20048;-60
2022/07/14 08:47:56;;;;;;;8.32;3.47;;;24.00;99.90;;;24.16;51.86;101965.59;5054609;28;20131;-60
2022/07/14 08:50:26;;;;;;;8.27;3.20;;;23.90;99.90;;;23.97;52.44;101971.81;5054692;28;20045;-60
2022/07/14 08:52:54;;;;;;;7.80;3.47;;;23.70;99.90;;;24.14;53.73;101964.78;5054275;28;20045;-60
2022/07/14 08:55:23;;;;;;;10.50;3.72;;;23.60;99.90;;;24.54;52.60;101965.75;5054727;28;20589;-60
2022/07/14 08:57:51;;;;;;;9.05;3.38;;;24.00;99.90;;;24.67;51.69;101964.25;5053914;28;20037;-60
2022/07/14 09:00:21;;;;;;;9.48;3.78;;;24.30;99.90;;;24.84;51.13;101969.78;5054208;28;20036;-60
2022/07/14 09:02:53;;;;;;;10.77;3.40;;;24.40;99.90;;;23.74;51.69;101972.78;5054225;28;20041;-60
2022/07/14 09:05:41;;;;;;;8.63;3.78;;;23.60;99.90;;;23.70;52.34;101971.16;5054211;28;20132;-60
2022/07/14 09:08:12;;;;;;;7.32;3.45;;;23.20;99.90;;;23.22;50.31;101955.06;5054147;28;20041;-60
2022/07/14 09:10:42;;;;;;;6.95;3.50;;;22.80;99.90;;;23.32;48.87;101949.31;5052858;28;20041;-60
2022/07/14 09:13:32;;;;;;;7.13;3.15;;;22.90;99.90;;;23.57;48.36;101964.50;5054140;28;20079;-60
2022/07/14 09:16:18;;;;;;;8.43;3.55;;;23.00;99.90;;;24.16;46.55;101962.91;5054326;28;20119;-60
2022/07/14 09:19:04;;;;;;;6.18;2.97;;;23.60;99.90;;;24.61;45.68;101960.00;5053931;28;20128;-60
2022/07/14 09:21:34;;;;;;;6.60;3.30;;;24.10;99.90;;;24.93;44.24;101961.28;5053805;28;20048;-60
2022/07/14 09:24:02;;;;;;;7.32;3.45;;;24.60;99.90;;;25.26;44.00;101959.66;5053723;28;20041;-60
2022/07/14 09:26:30;;;;;;;7.00;3.35;;;24.90;99.90;;;25.41;42.73;101968.94;5053635;28;20068;-61
2022/07/14 09:28:59;;;;;;;7.35;3.30;;;25.10;99.90;;;25.68;43.04;101973.00;5053696;28;20120;-60
2022/07/14 09:31:32;;;;;;;5.07;2.90;;;25.40;99.90;;;25.86;42.11;101963.97;5054000;28;20047;-61
2022/07/14 09:34:05;;;;;;;6.35;3.13;;;25.60;99.90;;;26.21;42.60;101978.47;5053947;28;20059;-61
2022/07/14 09:36:37;;;;;;;4.85;2.70;;;25.90;99.90;;;26.49;42.97;101965.19;5053916;28;20056;-61
2022/07/14 09:39:07;;;;;;;7.75;3.50;;;26.20;99.90;;;26.26;43.20;101969.13;5053314;28;20040;-60
2022/07/14 09:41:49;;;;;;;6.15;3.35;;;26.00;99.90;;;25.55;41.41;101971.84;5053893;28;20084;-60
2022/07/14 09:44:19;;;;;;;7.00;3.20;;;25.70;99.90;;;25.07;43.95;101966.91;5053650;28;20095;-60
2022/07/14 09:46:54;;;;;;;9.20;3.40;;;24.80;99.90;;;25.71;43.00;101962.88;5053896;28;20049;-60
2022/07/14 09:49:26;;;;;;;6.95;2.97;;;25.20;99.90;;;26.09;41.31;101970.94;5053622;28;20091;-60
2022/07/14 09:51:58;;;;;;;6.13;3.00;;;25.60;99.90;;;25.20;41.37;101964.50;5053550;28;20053;-60
2022/07/14 09:54:48;;;;;;;5.65;3.03;;;25.00;99.90;;;25.00;42.19;101968.16;5052116;28;20045;-61
2022/07/14 09:57:23;;;;;;;13.50;3.45;;;24.60;99.90;;;25.49;44.55;101974.84;5053786;28;20440;-61
2022/07/14 09:59:54;;;;;;;13.32;3.28;;;24.90;99.90;;;25.73;46.15;101974.53;5053734;28;20068;-62
2022/07/14 10:02:27;;;;;;;6.82;3.33;;;25.20;99.90;;;25.39;47.24;101912.09;5053967;28;20049;-61
2022/07/14 10:05:01;;;;;;;11.82;3.75;;;25.30;99.90;;;24.70;47.86;101967.69;5053371;28;20469;-60
2022/07/14 10:07:36;;;;;;;9.98;3.03;;;24.60;99.90;;;24.43;49.11;101968.06;5053293;28;20469;-60
2022/07/14 10:10:07;;;;;;;9.13;3.50;;;24.00;99.90;;;25.06;49.46;101973.28;5053307;28;20136;-60
2022/07/14 10:12:37;;;;;;;8.80;2.80;;;24.50;99.90;;;25.50;48.90;101982.03;5052843;28;20041;-61
2022/07/14 10:15:09;;;;;;;8.68;3.40;;;25.00;99.90;;;25.74;48.32;101980.84;5052959;28;20491;-60
2022/07/14 10:17:41;;;;;;;10.57;3.33;;;25.30;99.90;;;25.85;47.27;101984.78;5053287;28;20131;-60
2022/07/14 10:20:13;;;;;;;9.18;3.53;;;25.50;99.90;;;25.85;47.85;101987.47;5053514;28;20045;-60
2022/07/14 10:22:41;;;;;;;6.72;2.95;;;25.50;99.90;;;26.09;47.35;101985.41;5051984;28;20525;-60
2022/07/14 10:25:11;;;;;;;7.85;3.33;;;25.70;99.90;;;26.24;46.45;101976.47;5053027;28;20123;-60
2022/07/14 10:27:42;;;;;;;8.43;3.80;;;25.90;99.90;;;26.50;45.93;101973.25;5052855;28;20449;-60
2022/07/14 10:30:12;;;;;;;8.60;3.07;;;26.10;99.90;;;26.34;47.43;101972.31;5052744;28;20470;-60
2022/07/14 10:32:53;;;;;;;8.70;2.95;;;26.10;99.90;;;26.32;47.04;101979.66;5053073;28;20040;-60
2022/07/14 10:35:47;;;;;;;8.80;2.95;;;26.00;99.90;;;26.49;46.14;101970.63;5052704;28;20098;-61